Time;durP1;ratioP1;P1;durP2;ratioP2;P2;SDS_P1;SDS_P2;PMS_P1;PMS_P2;Temp;Humidity;BMP_temperature;BMP_pressure;BME280_temperature;BME280_humidity;BME280_pressure;Samples;Min_cycle;Max_cycle;Signal;HPM_P1;HPM_P2
2020/12/18 00:00:06;;;;;;;6.53;3.93;;;5.20;98.10;;;;;;4960954;28;20184;-72
2020/12/18 00:02:32;;;;;;;6.63;4.83;;;5.20;98.30;;;;;;4969686;28;20293;-72
2020/12/18 00:04:58;;;;;;;7.57;5.07;;;5.20;98.30;;;;;;4961497;28;20369;-72
2020/12/18 00:07:24;;;;;;;7.47;5.03;;;5.20;98.40;;;;;;4961175;28;20575;-72
2020/12/18 00:09:51;;;;;;;7.90;4.70;;;5.10;98.30;;;;;;4964176;28;20195;-72
2020/12/18 00:12:17;;;;;;;5.83;4.60;;;5.20;98.50;;;;;;4965226;28;20190;-71
2020/12/18 00:14:43;;;;;;;11.73;5.87;;;5.20;98.40;;;;;;4951171;28;20655;-71
2020/12/18 00:17:08;;;;;;;9.83;5.13;;;5.20;98.50;;;;;;4961977;28;20702;-73
2020/12/18 00:19:34;;;;;;;5.37;4.50;;;5.20;98.40;;;;;;4964160;28;20186;-72
2020/12/18 00:22:00;;;;;;;8.27;5.13;;;5.30;98.30;;;;;;4968419;28;20750;-72
2020/12/18 00:24:26;;;;;;;7.00;4.13;;;5.30;98.40;;;;;;4980933;28;20197;-72
2020/12/18 00:26:52;;;;;;;6.87;4.17;;;5.30;98.40;;;;;;4958584;28;20179;-72
2020/12/18 00:29:18;;;;;;;8.63;5.47;;;5.40;98.20;;;;;;4950997;28;20185;-72
2020/12/18 00:31:44;;;;;;;7.10;5.17;;;5.30;98.30;;;;;;4969068;28;20681;-71
2020/12/18 00:34:10;;;;;;;9.93;4.73;;;5.30;98.10;;;;;;4969363;28;20178;-72
2020/12/18 00:36:35;;;;;;;5.57;4.30;;;5.30;98.40;;;;;;4968289;28;20197;-72
2020/12/18 00:39:03;;;;;;;6.30;4.43;;;5.30;98.30;;;;;;4968953;28;20178;-72
2020/12/18 00:41:29;;;;;;;5.73;4.23;;;5.20;98.50;;;;;;4961053;28;20246;-72
2020/12/18 00:43:54;;;;;;;6.93;4.60;;;5.20;98.50;;;;;;4968591;28;20559;-72
2020/12/18 00:46:20;;;;;;;8.63;4.20;;;5.20;98.50;;;;;;4966782;28;20284;-72
2020/12/18 00:48:47;;;;;;;9.37;5.23;;;5.20;98.40;;;;;;4951484;28;20556;-72
2020/12/18 00:51:19;;;;;;;7.17;5.00;;;5.20;98.40;;;;;;4951267;28;20263;-73
2020/12/18 00:53:45;;;;;;;7.67;4.20;;;5.20;98.50;;;;;;4951476;28;20245;-73
2020/12/18 00:56:11;;;;;;;6.13;4.03;;;5.20;98.50;;;;;;4954624;28;20214;-72
2020/12/18 00:58:37;;;;;;;8.77;4.53;;;5.20;98.50;;;;;;4960427;28;20198;-73
2020/12/18 01:01:04;;;;;;;10.60;5.23;;;5.20;98.50;;;;;;4961795;28;20573;-72
2020/12/18 01:03:30;;;;;;;7.60;4.27;;;5.20;98.50;;;;;;4965946;28;20671;-72
2020/12/18 01:05:56;;;;;;;7.27;4.73;;;5.20;98.50;;;;;;4958086;28;20222;-72
2020/12/18 01:08:21;;;;;;;7.53;4.43;;;5.10;98.50;;;;;;4968252;28;20193;-73
2020/12/18 01:10:47;;;;;;;6.07;4.30;;;5.10;98.50;;;;;;4967822;28;20183;-72
2020/12/18 01:13:13;;;;;;;9.63;6.03;;;5.20;98.50;;;;;;4958998;28;20205;-72
2020/12/18 01:15:39;;;;;;;6.90;4.57;;;5.20;98.50;;;;;;4966781;28;20261;-72
2020/12/18 01:18:05;;;;;;;8.37;5.30;;;5.20;98.50;;;;;;4961326;28;20190;-72
2020/12/18 01:20:30;;;;;;;7.73;5.17;;;5.10;98.50;;;;;;4954263;28;20187;-73
2020/12/18 01:22:56;;;;;;;9.83;4.83;;;5.10;98.50;;;;;;4959530;28;20183;-72
2020/12/18 01:25:22;;;;;;;6.17;4.43;;;5.10;98.50;;;;;;4958121;28;20222;-72
2020/12/18 01:27:47;;;;;;;9.67;5.00;;;5.00;98.50;;;;;;4964215;28;20214;-73
2020/12/18 01:30:13;;;;;;;9.77;5.93;;;5.00;98.50;;;;;;4967820;28;20249;-72
2020/12/18 01:32:39;;;;;;;11.70;6.17;;;5.00;98.50;;;;;;4966709;28;20182;-72
2020/12/18 01:35:05;;;;;;;8.57;4.33;;;4.90;98.50;;;;;;4967758;28;20182;-72
2020/12/18 01:37:30;;;;;;;11.57;6.17;;;4.70;98.50;;;;;;4957275;28;20194;-72
2020/12/18 01:39:56;;;;;;;8.20;5.23;;;4.70;98.50;;;;;;4960892;28;20179;-72
2020/12/18 01:42:22;;;;;;;7.17;4.40;;;4.60;98.50;;;;;;4967102;28;20576;-71
2020/12/18 01:44:47;;;;;;;8.77;5.50;;;4.60;98.50;;;;;;4967437;28;20198;-72
2020/12/18 01:47:29;;;;;;;9.50;5.13;;;4.70;98.50;;;;;;4961150;28;20217;-71
2020/12/18 01:49:57;;;;;;;12.47;5.87;;;4.60;98.50;;;;;;4951317;28;20194;-72
2020/12/18 01:52:24;;;;;;;9.67;5.63;;;4.60;98.50;;;;;;4962021;28;20602;-72
2020/12/18 01:55:02;;;;;;;9.27;5.20;;;4.60;98.50;;;;;;4966445;28;20296;-72
2020/12/18 01:57:29;;;;;;;11.27;6.47;;;4.50;98.50;;;;;;4958738;28;20278;-72
2020/12/18 01:59:55;;;;;;;13.47;6.00;;;4.50;98.50;;;;;;4950006;28;20229;-72
2020/12/18 02:02:21;;;;;;;6.60;5.53;;;4.50;98.50;;;;;;4966013;28;20561;-72
2020/12/18 02:04:47;;;;;;;12.97;6.03;;;4.50;98.50;;;;;;4959519;28;20699;-72
2020/12/18 02:07:14;;;;;;;10.13;5.47;;;4.50;98.50;;;;;;4952358;28;20232;-72
2020/12/18 02:09:40;;;;;;;9.13;6.03;;;4.50;98.50;;;;;;4966648;28;20258;-72
2020/12/18 02:12:06;;;;;;;8.63;5.43;;;4.60;98.50;;;;;;4965886;28;20210;-72
2020/12/18 02:14:32;;;;;;;8.07;5.37;;;4.60;98.50;;;;;;4967272;28;20171;-72
2020/12/18 02:16:59;;;;;;;10.20;4.63;;;4.50;98.50;;;;;;4955432;28;20746;-72
2020/12/18 02:19:29;;;;;;;14.30;4.90;;;4.60;98.50;;;;;;4957101;28;20738;-72
2020/12/18 02:21:55;;;;;;;12.93;5.87;;;4.50;98.50;;;;;;4947516;28;20230;-72
2020/12/18 02:24:27;;;;;;;8.80;5.00;;;4.50;98.50;;;;;;4946634;28;20186;-72
2020/12/18 02:26:54;;;;;;;6.70;4.63;;;4.50;98.50;;;;;;4956098;28;20182;-72
2020/12/18 02:29:20;;;;;;;9.87;5.83;;;4.50;98.50;;;;;;4965982;28;20253;-73
2020/12/18 02:31:52;;;;;;;9.53;5.27;;;4.50;98.50;;;;;;4958720;28;20206;-73
2020/12/18 02:34:25;;;;;;;15.03;5.73;;;4.60;98.50;;;;;;4963283;28;20259;-73
2020/12/18 02:36:50;;;;;;;10.30;5.10;;;4.50;98.50;;;;;;4957046;28;20763;-72
2020/12/18 02:39:16;;;;;;;11.27;5.53;;;4.50;98.50;;;;;;4956384;28;20174;-72
2020/12/18 02:41:43;;;;;;;12.90;5.67;;;4.50;98.50;;;;;;4966801;28;20724;-72
2020/12/18 02:44:10;;;;;;;10.27;5.47;;;4.40;98.50;;;;;;4958562;28;20178;-72
2020/12/18 02:46:36;;;;;;;12.53;5.83;;;4.40;98.50;;;;;;4956903;28;20349;-73
2020/12/18 02:49:03;;;;;;;11.97;5.67;;;4.40;98.50;;;;;;4956708;28;20253;-72
2020/12/18 02:51:29;;;;;;;10.47;4.53;;;4.40;98.50;;;;;;4964021;28;20651;-73
2020/12/18 02:53:55;;;;;;;16.63;5.90;;;4.40;98.50;;;;;;4965627;28;20206;-73
2020/12/18 02:56:27;;;;;;;10.80;6.50;;;4.40;98.50;;;;;;4954616;28;20182;-72
2020/12/18 02:58:53;;;;;;;12.33;6.30;;;4.40;98.50;;;;;;4957940;28;20183;-72
2020/12/18 03:01:20;;;;;;;10.67;6.03;;;4.40;98.50;;;;;;4953713;28;20300;-73
2020/12/18 03:03:46;;;;;;;11.53;5.73;;;4.40;98.50;;;;;;4960573;28;20190;-73
2020/12/18 03:06:12;;;;;;;11.10;6.83;;;4.40;98.50;;;;;;4954112;28;20571;-73
2020/12/18 03:08:37;;;;;;;9.33;5.13;;;4.40;98.50;;;;;;4959706;28;20185;-73
2020/12/18 03:11:04;;;;;;;13.93;6.13;;;4.40;98.50;;;;;;4960139;28;20675;-73
2020/12/18 03:13:29;;;;;;;9.87;5.63;;;4.30;98.50;;;;;;4952494;28;20987;-73
2020/12/18 03:15:55;;;;;;;10.93;4.53;;;4.30;98.50;;;;;;4947499;28;20210;-73
2020/12/18 03:18:21;;;;;;;12.67;5.53;;;4.30;98.50;;;;;;4954859;28;20221;-73
2020/12/18 03:20:47;;;;;;;14.80;6.87;;;4.30;98.50;;;;;;4966482;28;20202;-73
2020/12/18 03:23:13;;;;;;;13.53;6.13;;;4.40;98.50;;;;;;4964918;28;20194;-72
2020/12/18 03:25:39;;;;;;;13.70;6.20;;;4.40;98.50;;;;;;4962395;28;20252;-73
2020/12/18 03:28:04;;;;;;;10.30;5.57;;;4.50;98.50;;;;;;4951551;28;20175;-73
2020/12/18 03:30:30;;;;;;;8.17;5.40;;;4.50;98.50;;;;;;4963036;28;20182;-73
2020/12/18 03:32:56;;;;;;;12.83;5.23;;;4.60;98.50;;;;;;4965779;28;20269;-72
2020/12/18 03:35:22;;;;;;;10.53;5.20;;;4.50;98.50;;;;;;4959900;28;20202;-73
2020/12/18 03:37:48;;;;;;;8.47;4.57;;;4.50;98.50;;;;;;4961677;28;20690;-73
2020/12/18 03:40:17;;;;;;;7.20;4.57;;;4.40;98.50;;;;;;4958358;28;20187;-73
2020/12/18 03:42:43;;;;;;;10.17;5.33;;;4.40;98.50;;;;;;4966175;28;20182;-72
2020/12/18 03:45:09;;;;;;;9.63;5.27;;;4.40;98.50;;;;;;4955701;28;20983;-73
2020/12/18 03:47:35;;;;;;;9.03;5.10;;;4.40;98.50;;;;;;4962208;28;20170;-73
2020/12/18 03:50:00;;;;;;;6.07;4.77;;;4.30;98.50;;;;;;4966389;28;20242;-73
2020/12/18 03:52:29;;;;;;;11.13;5.30;;;4.30;98.50;;;;;;4965919;28;20182;-73
2020/12/18 03:54:54;;;;;;;9.50;5.57;;;4.30;98.50;;;;;;4969965;28;20691;-73
2020/12/18 03:57:21;;;;;;;8.83;4.90;;;4.30;98.50;;;;;;4960837;28;20182;-72
2020/12/18 03:59:46;;;;;;;4.73;3.83;;;4.30;98.50;;;;;;4963643;28;20644;-72
2020/12/18 04:02:12;;;;;;;10.77;4.60;;;4.30;98.50;;;;;;4955570;28;20199;-73
2020/12/18 04:04:38;;;;;;;5.43;4.07;;;4.20;98.50;;;;;;4963976;28;20174;-72
2020/12/18 04:07:04;;;;;;;6.97;4.07;;;4.20;98.50;;;;;;4949806;28;20571;-72
2020/12/18 04:09:29;;;;;;;9.43;4.97;;;4.30;98.50;;;;;;4949296;29;20326;-72
2020/12/18 04:11:55;;;;;;;9.43;4.30;;;4.30;98.50;;;;;;4949389;28;20714;-72
2020/12/18 04:14:21;;;;;;;9.07;4.17;;;4.30;98.50;;;;;;4949277;28;20348;-71
2020/12/18 04:16:46;;;;;;;9.57;4.70;;;4.30;98.50;;;;;;4956359;28;20947;-72
2020/12/18 04:19:12;;;;;;;9.30;4.80;;;4.40;98.50;;;;;;4955249;28;20213;-72
2020/12/18 04:21:38;;;;;;;9.37;4.40;;;4.40;98.50;;;;;;4951940;28;20190;-72
2020/12/18 04:24:04;;;;;;;11.90;5.50;;;4.50;98.50;;;;;;4955921;28;20216;-71
2020/12/18 04:26:29;;;;;;;6.77;4.90;;;4.50;98.50;;;;;;4953823;28;20586;-72
2020/12/18 04:28:55;;;;;;;7.10;4.43;;;4.60;98.50;;;;;;4968779;28;20197;-70
2020/12/18 04:31:21;;;;;;;7.93;4.47;;;4.60;98.50;;;;;;4967482;28;20585;-72
2020/12/18 04:33:47;;;;;;;5.57;3.97;;;4.60;98.50;;;;;;4965293;28;21092;-71
2020/12/18 04:36:14;;;;;;;10.07;4.27;;;4.60;98.30;;;;;;4963906;28;20189;-72
2020/12/18 04:38:40;;;;;;;8.57;4.57;;;4.60;98.30;;;;;;4966271;28;20896;-72
2020/12/18 04:41:06;;;;;;;7.63;4.30;;;4.50;98.40;;;;;;4964790;28;20245;-72
2020/12/18 04:43:32;;;;;;;6.73;4.77;;;4.50;98.30;;;;;;4956107;28;20244;-72
2020/12/18 04:45:59;;;;;;;4.97;3.47;;;4.50;98.30;;;;;;4966505;28;20210;-72
2020/12/18 04:48:31;;;;;;;7.57;4.53;;;4.50;98.30;;;;;;4961621;28;20658;-72
2020/12/18 04:50:57;;;;;;;6.10;4.07;;;4.50;98.30;;;;;;4959734;28;20254;-72
2020/12/18 04:53:28;;;;;;;7.13;4.30;;;4.50;98.30;;;;;;4962268;28;20194;-72
2020/12/18 04:55:54;;;;;;;7.70;3.93;;;4.50;98.20;;;;;;4962882;28;20193;-72
2020/12/18 04:58:23;;;;;;;8.00;4.60;;;4.40;98.10;;;;;;4962283;28;20186;-72
2020/12/18 05:00:53;;;;;;;5.57;3.80;;;4.40;98.20;;;;;;4958224;28;20642;-72
2020/12/18 05:03:19;;;;;;;5.37;2.80;;;4.30;98.20;;;;;;4966709;28;20715;-73
2020/12/18 05:05:44;;;;;;;7.37;4.20;;;4.30;98.30;;;;;;4967760;28;20245;-72
2020/12/18 05:08:10;;;;;;;6.83;4.27;;;4.20;98.20;;;;;;4947817;28;20183;-72
2020/12/18 05:10:36;;;;;;;7.07;4.20;;;4.10;98.50;;;;;;4959014;28;20257;-71
2020/12/18 05:13:02;;;;;;;5.27;4.40;;;4.00;98.50;;;;;;4953273;28;20213;-72
2020/12/18 05:15:28;;;;;;;8.03;4.50;;;4.00;98.50;;;;;;4967300;28;20277;-72
2020/12/18 05:17:56;;;;;;;6.77;4.20;;;4.00;98.50;;;;;;4963205;28;20632;-72
2020/12/18 05:20:24;;;;;;;5.50;3.90;;;4.00;98.50;;;;;;4967408;28;20293;-72
2020/12/18 05:22:52;;;;;;;5.73;3.07;;;3.90;98.50;;;;;;4950423;28;20223;-72
2020/12/18 05:25:18;;;;;;;5.60;3.23;;;3.90;98.50;;;;;;4949782;28;20629;-72
2020/12/18 05:27:44;;;;;;;5.57;3.37;;;3.80;98.50;;;;;;4959985;28;20218;-71
2020/12/18 05:30:10;;;;;;;9.60;4.23;;;3.80;98.50;;;;;;4965117;28;20194;-71
2020/12/18 05:32:37;;;;;;;4.73;3.90;;;3.90;98.50;;;;;;4961753;28;20189;-73
2020/12/18 05:35:04;;;;;;;2.97;2.73;;;3.90;98.50;;;;;;4967454;28;20190;-72
2020/12/18 05:37:39;;;;;;;5.70;2.87;;;3.90;98.50;;;;;;4956764;28;20248;-72
2020/12/18 05:40:07;;;;;;;4.70;3.90;;;3.90;98.50;;;;;;4951551;28;20229;-73
2020/12/18 05:43:06;;;;;;;3.37;3.23;;;3.90;98.50;;;;;;4960610;28;20190;-72
2020/12/18 05:45:31;;;;;;;5.73;2.77;;;3.80;98.50;;;;;;4890248;29;20217;-72
2020/12/18 05:47:59;;;;;;;7.43;3.70;;;3.80;98.50;;;;;;4906576;29;20199;-71
2020/12/18 05:50:33;;;;;;;4.50;3.27;;;3.90;98.50;;;;;;4905413;29;20193;-72
2020/12/18 05:53:00;;;;;;;6.43;3.80;;;3.90;98.50;;;;;;4891232;29;20376;-71
2020/12/18 05:55:27;;;;;;;5.43;3.70;;;3.80;98.50;;;;;;4906964;29;20196;-72
2020/12/18 05:57:54;;;;;;;5.37;3.93;;;3.80;98.50;;;;;;4906464;29;20208;-72
2020/12/18 06:00:23;;;;;;;3.43;3.10;;;3.70;98.50;;;;;;4905825;29;20200;-71
2020/12/18 06:02:59;;;;;;;4.87;3.53;;;3.80;98.50;;;;;;4904621;29;20212;-71
2020/12/18 06:05:25;;;;;;;7.20;3.30;;;3.80;98.50;;;;;;4904761;29;20205;-71
2020/12/18 06:07:52;;;;;;;7.63;3.97;;;3.90;98.50;;;;;;4906670;29;20668;-71
2020/12/18 06:10:23;;;;;;;5.33;3.23;;;3.90;98.50;;;;;;4905128;29;20774;-72
2020/12/18 06:12:50;;;;;;;3.67;3.20;;;3.90;98.50;;;;;;4907364;29;20184;-72
2020/12/18 06:15:18;;;;;;;5.07;3.73;;;3.90;98.50;;;;;;4906161;29;20200;-72
2020/12/18 06:17:48;;;;;;;7.00;3.60;;;3.90;98.50;;;;;;4906657;29;20281;-72
2020/12/18 06:20:15;;;;;;;7.60;3.43;;;4.00;98.50;;;;;;4890823;29;20243;-72
2020/12/18 06:22:57;;;;;;;4.03;3.17;;;4.00;98.50;;;;;;4948816;28;20198;-72
2020/12/18 06:25:23;;;;;;;4.00;3.60;;;4.10;98.50;;;;;;4965560;28;20588;-72
2020/12/18 06:28:07;;;;;;;6.37;4.03;;;4.10;98.50;;;;;;4959318;28;20254;-72
2020/12/18 06:30:32;;;;;;;3.97;2.90;;;4.10;98.50;;;;;;4975338;28;20180;-71
2020/12/18 06:32:58;;;;;;;8.63;4.43;;;4.00;98.50;;;;;;4961855;28;20738;-72
2020/12/18 06:35:31;;;;;;;5.83;3.60;;;4.00;98.50;;;;;;4973889;28;20186;-73
2020/12/18 06:38:18;;;;;;;7.43;3.83;;;3.90;98.50;;;;;;4954943;28;20182;-72
2020/12/18 06:40:44;;;;;;;8.77;4.27;;;3.90;98.50;;;;;;4961233;28;20201;-71
2020/12/18 06:43:10;;;;;;;6.67;4.00;;;3.90;98.50;;;;;;4961546;28;20772;-72
2020/12/18 06:45:36;;;;;;;7.90;4.13;;;3.90;98.50;;;;;;4960030;28;20202;-72
2020/12/18 06:48:25;;;;;;;8.37;4.53;;;3.90;98.50;;;;;;4958994;28;20578;-72
2020/12/18 06:50:50;;;;;;;4.83;4.13;;;3.80;98.50;;;;;;4960976;28;20186;-69
2020/12/18 06:53:16;;;;;;;9.20;5.70;;;3.70;98.50;;;;;;4954934;28;20667;-73
2020/12/18 06:55:42;;;;;;;9.30;5.03;;;3.70;98.50;;;;;;4965216;28;20186;-72
2020/12/18 06:58:12;;;;;;;11.23;5.63;;;3.80;98.50;;;;;;4953499;28;20193;-72
2020/12/18 07:00:57;;;;;;;12.17;5.23;;;3.80;98.50;;;;;;4964757;28;20205;-73
2020/12/18 07:03:46;;;;;;;9.10;5.97;;;3.90;98.50;;;;;;4960145;28;20217;-74
2020/12/18 07:06:21;;;;;;;10.67;5.90;;;3.80;98.50;;;;;;4961666;28;20203;-73
2020/12/18 07:08:47;;;;;;;9.37;5.10;;;3.80;98.50;;;;;;4967099;28;20275;-74
2020/12/18 07:11:15;;;;;;;13.83;6.27;;;3.90;98.50;;;;;;4958681;28;20363;-73
2020/12/18 07:13:46;;;;;;;9.40;5.60;;;3.90;98.50;;;;;;4959432;28;20240;-75
2020/12/18 07:16:13;;;;;;;8.80;5.53;;;4.00;98.50;;;;;;4957491;28;20273;-75
2020/12/18 07:18:41;;;;;;;9.87;5.73;;;4.00;98.50;;;;;;4956588;28;20175;-73
2020/12/18 07:21:15;;;;;;;8.97;4.90;;;4.00;98.50;;;;;;4963262;28;20622;-73
2020/12/18 07:23:43;;;;;;;9.17;5.60;;;4.10;98.50;;;;;;4949622;29;20183;-72
2020/12/18 07:26:10;;;;;;;8.97;6.03;;;4.10;98.50;;;;;;4956083;28;20199;-73
2020/12/18 07:28:39;;;;;;;12.57;6.80;;;4.20;98.50;;;;;;4964975;28;20182;-75
2020/12/18 07:31:15;;;;;;;12.00;6.93;;;4.20;98.50;;;;;;4960468;28;20179;-79
2020/12/18 07:33:41;;;;;;;13.60;6.20;;;4.20;98.50;;;;;;4960570;28;20167;-79
2020/12/18 07:36:07;;;;;;;10.83;6.37;;;4.20;98.50;;;;;;4953961;28;20600;-77
2020/12/18 07:38:33;;;;;;;9.63;5.40;;;4.30;98.50;;;;;;4959877;28;20693;-74
2020/12/18 07:41:10;;;;;;;9.03;5.43;;;4.30;98.50;;;;;;4958399;28;20217;-75
2020/12/18 07:43:37;;;;;;;12.03;5.83;;;4.40;98.50;;;;;;4969722;28;20174;-73
2020/12/18 07:46:12;;;;;;;8.27;5.63;;;4.30;98.50;;;;;;4959709;28;20210;-74
2020/12/18 07:48:40;;;;;;;11.20;6.30;;;4.40;98.50;;;;;;4959685;28;20170;-74
2020/12/18 07:51:11;;;;;;;11.60;6.37;;;4.50;98.50;;;;;;4959025;28;20578;-77
2020/12/18 07:53:42;;;;;;;10.37;5.93;;;4.50;98.20;;;;;;4966421;28;20206;-71
2020/12/18 07:56:12;;;;;;;9.53;5.13;;;4.40;97.90;;;;;;4957118;28;20190;-74
2020/12/18 07:59:06;;;;;;;16.40;7.17;;;4.40;96.80;;;;;;4966755;28;20185;-72
2020/12/18 08:01:33;;;;;;;13.47;7.20;;;4.30;96.80;;;;;;4963206;28;20186;-74
2020/12/18 08:04:10;;;;;;;11.87;6.93;;;4.30;97.20;;;;;;4969529;28;20194;-73
2020/12/18 08:06:37;;;;;;;12.27;7.90;;;4.30;97.30;;;;;;4963440;28;20206;-73
2020/12/18 08:09:11;;;;;;;16.47;8.37;;;4.30;97.60;;;;;;4961773;28;20194;-73
2020/12/18 08:11:42;;;;;;;12.87;6.60;;;4.30;97.60;;;;;;4962091;28;20180;-73
2020/12/18 08:14:10;;;;;;;18.13;9.13;;;4.40;97.40;;;;;;4958819;28;20179;-73
2020/12/18 08:16:36;;;;;;;13.93;7.27;;;4.20;97.00;;;;;;4957402;28;20435;-72
2020/12/18 08:19:10;;;;;;;17.63;8.57;;;4.30;97.40;;;;;;4963372;28;20190;-72
2020/12/18 08:21:40;;;;;;;18.10;8.23;;;4.30;97.30;;;;;;4959576;28;20187;-72
2020/12/18 08:24:24;;;;;;;12.97;7.90;;;4.40;97.20;;;;;;4956611;28;20174;-75
2020/12/18 08:27:15;;;;;;;18.90;8.97;;;4.30;97.40;;;;;;4965167;28;20194;-76
2020/12/18 08:29:43;;;;;;;28.23;9.93;;;4.30;97.40;;;;;;4908743;29;20196;-73
2020/12/18 08:32:12;;;;;;;17.87;9.83;;;4.30;97.50;;;;;;4906602;29;20287;-74
2020/12/18 08:34:39;;;;;;;17.83;10.07;;;4.30;97.60;;;;;;4900602;29;20668;-74
2020/12/18 08:37:04;;;;;;;21.33;10.17;;;4.30;97.80;;;;;;4890722;29;20216;-74
2020/12/18 08:39:32;;;;;;;17.53;9.13;;;4.40;98.00;;;;;;4897595;29;20246;-74
2020/12/18 08:41:58;;;;;;;22.77;10.90;;;4.50;98.10;;;;;;4906527;29;20219;-75
2020/12/18 08:44:38;;;;;;;25.20;11.30;;;4.60;98.00;;;;;;4906610;29;20191;-75
2020/12/18 08:47:17;;;;;;;21.20;10.00;;;4.70;97.80;;;;;;4903927;29;20227;-79
2020/12/18 08:49:43;;;;;;;15.63;9.37;;;4.90;97.60;;;;;;4899165;29;20280;-75
2020/12/18 08:52:09;;;;;;;16.67;8.97;;;5.00;97.30;;;;;;4897015;29;20293;-73
2020/12/18 08:54:39;;;;;;;24.23;10.33;;;5.10;97.30;;;;;;4907132;29;20192;-77
2020/12/18 08:57:16;;;;;;;20.07;10.40;;;5.10;96.80;;;;;;4908944;29;20300;-76
2020/12/18 09:00:05;;;;;;;20.00;10.53;;;5.20;96.70;;;;;;4902121;29;20252;-74
2020/12/18 09:02:32;;;;;;;21.87;10.77;;;5.30;96.40;;;;;;4891535;29;20200;-74
2020/12/18 09:05:18;;;;;;;20.13;10.20;;;5.40;96.50;;;;;;4892231;29;20184;-74
2020/12/18 09:08:21;;;;;;;11.63;8.80;;;5.50;96.30;;;;;;4963849;28;20205;-75
2020/12/18 09:10:59;;;;;;;12.93;8.30;;;5.60;96.30;;;;;;4927058;29;20328;-76
2020/12/18 09:13:26;;;;;;;14.27;9.00;;;5.70;95.70;;;;;;4911676;29;20199;-75
2020/12/18 09:15:59;;;;;;;22.30;10.60;;;5.70;94.30;;;;;;4910716;29;20378;-76
2020/12/18 09:18:26;;;;;;;18.27;9.00;;;5.60;93.90;;;;;;4923799;29;20267;-76
2020/12/18 09:20:54;;;;;;;18.80;10.53;;;5.60;93.50;;;;;;4910832;29;20196;-76
2020/12/18 09:23:30;;;;;;;23.20;11.83;;;5.60;94.00;;;;;;4910851;29;20222;-77
2020/12/18 09:25:57;;;;;;;19.90;10.90;;;5.60;94.20;;;;;;4927051;29;20199;-76
2020/12/18 09:28:23;;;;;;;22.37;11.53;;;5.60;94.50;;;;;;4926486;29;20192;-76
2020/12/18 09:30:57;;;;;;;17.87;10.47;;;5.70;93.70;;;;;;4926488;29;20266;-75
2020/12/18 09:33:25;;;;;;;20.30;11.83;;;5.70;93.30;;;;;;4927504;29;20180;-76
2020/12/18 09:35:54;;;;;;;19.33;11.23;;;5.60;93.60;;;;;;4926167;29;20227;-76
2020/12/18 09:38:34;;;;;;;17.37;10.17;;;5.70;93.60;;;;;;4927073;29;20219;-77
2020/12/18 09:41:03;;;;;;;24.40;10.87;;;5.70;93.80;;;;;;4911319;29;20195;-77
2020/12/18 09:43:29;;;;;;;19.97;11.30;;;5.80;94.10;;;;;;4927098;29;20690;-76
2020/12/18 09:45:57;;;;;;;24.90;11.77;;;5.80;93.40;;;;;;4925802;29;20282;-75
2020/12/18 09:48:23;;;;;;;28.30;12.57;;;5.90;93.50;;;;;;4966110;28;20217;-76
2020/12/18 09:50:58;;;;;;;20.43;10.57;;;5.90;93.40;;;;;;4966777;28;20190;-77
2020/12/18 09:53:26;;;;;;;20.87;11.67;;;6.00;93.60;;;;;;4967556;28;20177;-75
2020/12/18 09:55:52;;;;;;;21.10;11.37;;;6.00;93.20;;;;;;4967332;28;20241;-76
2020/12/18 09:58:19;;;;;;;19.20;11.43;;;6.00;92.50;;;;;;4967163;28;20588;-76
2020/12/18 10:00:45;;;;;;;24.37;11.70;;;6.00;92.40;;;;;;4964351;28;20198;-76
2020/12/18 10:03:10;;;;;;;25.77;12.47;;;6.10;92.90;;;;;;4981118;28;20202;-76
2020/12/18 10:05:36;;;;;;;24.83;12.90;;;6.10;92.90;;;;;;4967339;28;20682;-75
2020/12/18 10:08:02;;;;;;;23.60;12.07;;;6.10;93.00;;;;;;4966348;28;20175;-75
2020/12/18 10:10:30;;;;;;;22.07;12.40;;;6.10;91.90;;;;;;4964940;28;20190;-76
2020/12/18 10:12:56;;;;;;;23.23;13.73;;;6.10;92.30;;;;;;4967387;28;20174;-76
2020/12/18 10:15:22;;;;;;;26.23;13.40;;;6.00;92.10;;;;;;4961448;28;20221;-77
2020/12/18 10:17:49;;;;;;;26.17;13.00;;;6.00;92.70;;;;;;4965849;28;20237;-76
2020/12/18 10:20:14;;;;;;;23.40;13.03;;;6.00;92.90;;;;;;4962230;28;20265;-76
2020/12/18 10:22:40;;;;;;;28.37;13.13;;;6.10;93.00;;;;;;4967073;28;20198;-76
2020/12/18 10:25:07;;;;;;;24.87;12.90;;;6.20;93.10;;;;;;4966437;28;20197;-76
2020/12/18 10:27:33;;;;;;;20.97;12.33;;;6.30;93.00;;;;;;4966183;28;20190;-75
2020/12/18 10:29:59;;;;;;;24.67;13.60;;;6.40;93.00;;;;;;4966603;28;20182;-76
2020/12/18 10:32:26;;;;;;;22.97;12.53;;;6.50;91.80;;;;;;4966531;28;20184;-76
2020/12/18 10:34:52;;;;;;;26.37;13.40;;;6.60;91.30;;;;;;4964682;28;20193;-76
2020/12/18 10:37:18;;;;;;;23.57;12.83;;;6.70;91.20;;;;;;4964972;28;20186;-76
2020/12/18 10:39:43;;;;;;;26.87;14.27;;;6.90;91.40;;;;;;4966878;28;20840;-76
2020/12/18 10:42:09;;;;;;;23.70;13.60;;;6.90;90.60;;;;;;4967104;28;20223;-77
2020/12/18 10:44:36;;;;;;;33.17;14.07;;;7.00;90.90;;;;;;4967006;28;20182;-77
2020/12/18 10:47:04;;;;;;;31.53;15.00;;;7.00;90.20;;;;;;4981920;28;20206;-76
2020/12/18 10:49:30;;;;;;;25.53;13.90;;;7.10;90.70;;;;;;4966791;28;20596;-77
2020/12/18 10:51:56;;;;;;;26.30;12.87;;;7.30;90.40;;;;;;4960203;28;20240;-77
2020/12/18 10:54:21;;;;;;;31.27;13.93;;;7.50;90.40;;;;;;4955163;28;20183;-77
2020/12/18 10:56:48;;;;;;;22.53;11.80;;;7.70;89.80;;;;;;4957900;28;20186;-77
2020/12/18 10:59:14;;;;;;;29.13;13.13;;;8.00;89.40;;;;;;4963678;28;20198;-76
2020/12/18 11:01:40;;;;;;;24.57;12.93;;;8.20;89.30;;;;;;4969947;28;20186;-78
2020/12/18 11:04:06;;;;;;;25.33;13.93;;;8.50;88.20;;;;;;4967448;28;20264;-77
2020/12/18 11:06:32;;;;;;;27.10;13.83;;;8.70;87.20;;;;;;4959641;28;20223;-77
2020/12/18 11:08:58;;;;;;;26.00;13.73;;;9.00;86.60;;;;;;4970984;28;20197;-76
2020/12/18 11:11:29;;;;;;;23.53;13.60;;;9.30;85.90;;;;;;4968648;28;20197;-76
2020/12/18 11:13:56;;;;;;;22.67;13.97;;;9.50;85.90;;;;;;4954037;28;20250;-73
2020/12/18 11:16:21;;;;;;;27.63;14.35;;;9.70;85.20;;;;;;4958403;28;20183;-73
2020/12/18 11:18:48;;;;;;;26.50;13.82;;;9.80;83.40;;;;;;4964913;28;20557;-73
2020/12/18 11:21:14;;;;;;;24.30;13.82;;;9.90;83.00;;;;;;4960280;28;20190;-73
2020/12/18 11:23:40;;;;;;;27.10;13.95;;;10.00;83.50;;;;;;4959103;28;20228;-73
2020/12/18 11:26:06;;;;;;;28.10;14.07;;;10.20;83.40;;;;;;4966302;28;20682;-74
2020/12/18 11:28:31;;;;;;;23.08;14.27;;;10.50;82.80;;;;;;4968247;28;20178;-74
2020/12/18 11:30:59;;;;;;;31.50;14.02;;;10.90;81.80;;;;;;4968412;28;20193;-74
2020/12/18 11:33:25;;;;;;;25.27;14.65;;;11.30;81.80;;;;;;4969884;28;20650;-73
2020/12/18 11:35:51;;;;;;;24.33;14.55;;;11.80;80.70;;;;;;4969487;28;20968;-73
2020/12/18 11:38:17;;;;;;;22.23;12.73;;;12.10;79.00;;;;;;4968406;28;20187;-73
2020/12/18 11:40:44;;;;;;;22.25;13.70;;;12.60;77.50;;;;;;4967065;28;20244;-73
2020/12/18 11:43:09;;;;;;;26.23;15.05;;;13.10;77.00;;;;;;4968172;28;20186;-73
2020/12/18 11:45:35;;;;;;;20.63;13.32;;;13.60;74.00;;;;;;4967975;28;20202;-73
2020/12/18 11:48:01;;;;;;;23.25;14.07;;;14.00;73.80;;;;;;4969066;28;20170;-74
2020/12/18 11:50:28;;;;;;;24.65;14.13;;;14.40;72.70;;;;;;4969316;28;20240;-74
2020/12/18 11:52:58;;;;;;;24.02;13.90;;;14.80;71.90;;;;;;4969056;28;20958;-74
2020/12/18 11:55:24;;;;;;;21.15;12.98;;;15.20;70.80;;;;;;4967149;28;20186;-72
2020/12/18 11:57:50;;;;;;;25.20;14.77;;;15.70;70.60;;;;;;4967618;28;20273;-73
2020/12/18 12:00:19;;;;;;;20.75;13.85;;;16.00;69.20;;;;;;4968973;28;20273;-73
2020/12/18 12:02:49;;;;;;;22.90;13.55;;;16.40;68.10;;;;;;4968636;28;20260;-74
2020/12/18 12:05:19;;;;;;;20.48;13.10;;;16.70;67.70;;;;;;4969110;28;20194;-75
2020/12/18 12:07:46;;;;;;;19.30;13.85;;;16.90;66.30;;;;;;4967906;28;20972;-73
2020/12/18 12:10:13;;;;;;;20.63;13.52;;;17.10;65.90;;;;;;4968611;28;20190;-74
2020/12/18 12:12:39;;;;;;;20.45;13.15;;;17.20;64.80;;;;;;4966448;28;20217;-74
2020/12/18 12:15:06;;;;;;;18.58;13.25;;;17.50;67.80;;;;;;4956946;28;20182;-74
2020/12/18 12:17:32;;;;;;;20.40;12.68;;;17.70;66.70;;;;;;4969338;28;20170;-75
2020/12/18 12:19:58;;;;;;;22.85;14.63;;;17.80;66.70;;;;;;4967544;28;20187;-75
2020/12/18 12:22:24;;;;;;;21.30;13.63;;;17.80;65.90;;;;;;4964888;28;20185;-74
2020/12/18 12:24:55;;;;;;;19.80;13.65;;;17.80;65.20;;;;;;4963898;28;20273;-74
2020/12/18 12:27:22;;;;;;;21.77;15.05;;;17.90;66.50;;;;;;4967966;28;20175;-74
2020/12/18 12:29:48;;;;;;;20.52;13.48;;;17.70;66.20;;;;;;4962069;28;20178;-75
2020/12/18 12:32:14;;;;;;;17.95;12.88;;;17.50;66.20;;;;;;4963863;28;20977;-72
2020/12/18 12:34:40;;;;;;;21.52;14.10;;;17.20;65.70;;;;;;4972234;28;20183;-77
2020/12/18 12:37:06;;;;;;;18.75;13.45;;;17.00;66.70;;;;;;4965285;28;20183;-75
2020/12/18 12:39:32;;;;;;;22.83;14.30;;;16.90;66.40;;;;;;4961730;28;20663;-75
2020/12/18 12:41:59;;;;;;;17.90;12.57;;;16.80;68.00;;;;;;4960414;28;20190;-76
2020/12/18 12:44:25;;;;;;;24.77;14.10;;;16.70;67.80;;;;;;4962968;28;20186;-73
2020/12/18 12:46:51;;;;;;;24.08;13.43;;;16.20;67.10;;;;;;4961186;28;20205;-75
2020/12/18 12:49:16;;;;;;;21.40;13.70;;;16.00;67.40;;;;;;4956608;28;20212;-76
2020/12/18 12:51:42;;;;;;;24.02;15.38;;;16.10;67.60;;;;;;4967965;28;20395;-76